Beech Island, South Carolina
Current Conditions -  °F | °C
As of 8:53 AM on Monday 22 Dec 2014 (Local Time) from KAGS Reporting Station
Haze Haze  
Wind Chill:   Ceiling: 600
Heat Index:   Visibility: 2mi
Dew Point:   Wind: 8mph
Humidity: 93%   Direction: 70°ENE
Pressure: 30.09"   Gusts: NA
Location:  33.43°N, 81.89°W
Report Text: KAGS 221353Z 07007KT 2SM BR BKN006 OVC011 08/07 A3009 RMK AO2 CIG 004V009 SLP188 T00780067
Loading
Personal Weather Stations






























Interactive Weather Map New forecast layout! Learn more

10-Day Weather Forecast

Advertisements
Track Severe Weather on mobile